createdAt,value
2022-09-30T00:02:07.152Z,7.30
2022-09-30T00:04:52.876Z,7.93
2022-09-30T00:07:38.096Z,7.05
2022-09-30T00:10:23.629Z,7.38
2022-09-30T00:13:09.411Z,7.10
2022-09-30T00:15:54.835Z,6.53
2022-09-30T00:18:41.891Z,6.55
2022-09-30T00:21:31.070Z,6.15
2022-09-30T00:24:16.395Z,7.50
2022-09-30T00:27:01.891Z,7.05
2022-09-30T00:29:47.251Z,7.45
2022-09-30T00:32:32.732Z,8.48
2022-09-30T00:35:22.426Z,8.73
2022-09-30T00:38:07.776Z,9.27
2022-09-30T00:40:54.362Z,9.77
2022-09-30T00:43:42.338Z,8.18
2022-09-30T00:46:44.900Z,7.78
2022-09-30T00:49:30.530Z,8.70
2022-09-30T00:52:16.514Z,7.13
2022-09-30T00:55:08.269Z,7.35
2022-09-30T00:57:54.398Z,7.13
2022-09-30T01:00:40.757Z,6.90
2022-09-30T01:03:26.578Z,6.53
2022-09-30T01:06:12.080Z,6.55
2022-09-30T01:08:58.576Z,7.05
2022-09-30T01:11:44.240Z,6.68
2022-09-30T01:14:29.693Z,7.15
2022-09-30T01:17:39.685Z,7.53
2022-09-30T01:21:06.842Z,7.35
2022-09-30T01:24:01.475Z,7.00
2022-09-30T01:26:52.748Z,7.35
2022-09-30T01:29:53.871Z,6.47
2022-09-30T01:32:50.216Z,7.13
2022-09-30T01:36:00.651Z,6.53
2022-09-30T01:38:51.730Z,6.82
2022-09-30T01:42:07.125Z,7.20
2022-09-30T01:44:55.774Z,6.65
2022-09-30T01:48:00.240Z,7.43
2022-09-30T01:51:07.437Z,7.20
2022-09-30T01:54:00.505Z,7.05
2022-09-30T01:56:50.705Z,7.75
2022-09-30T01:59:37.660Z,7.97
2022-09-30T02:02:29.922Z,7.97
2022-09-30T02:05:51.090Z,7.32
2022-09-30T02:09:06.126Z,8.85
2022-09-30T02:11:56.341Z,8.52
2022-09-30T02:14:47.538Z,8.02
2022-09-30T02:17:40.643Z,8.18
2022-09-30T02:20:29.293Z,8.98
2022-09-30T02:23:25.774Z,8.00
2022-09-30T02:26:25.133Z,7.55
2022-09-30T02:29:18.661Z,7.40
2022-09-30T02:32:20.884Z,8.05
2022-09-30T02:35:19.009Z,8.60
2022-09-30T02:38:22.384Z,8.40
2022-09-30T02:41:21.706Z,8.75
2022-09-30T02:44:07.258Z,7.32
2022-09-30T02:47:37.408Z,7.90
2022-09-30T02:50:46.605Z,6.90
2022-09-30T02:54:00.565Z,7.22
2022-09-30T02:56:59.286Z,8.45
2022-09-30T02:59:51.181Z,7.63
2022-09-30T03:02:36.531Z,8.45
2022-09-30T03:05:22.318Z,8.07
2022-09-30T03:08:07.808Z,8.40
2022-09-30T03:10:53.600Z,7.78
2022-09-30T03:14:06.949Z,9.25
2022-09-30T03:17:25.942Z,9.70
2022-09-30T03:20:27.274Z,8.93
2022-09-30T03:23:27.367Z,8.75
2022-09-30T03:26:41.634Z,9.52
2022-09-30T03:29:39.223Z,9.07
2022-09-30T03:32:46.058Z,9.25
2022-09-30T03:35:37.194Z,9.18
2022-09-30T03:38:47.316Z,10.07
2022-09-30T03:41:51.574Z,9.68
2022-09-30T03:44:52.162Z,9.30
2022-09-30T03:47:46.250Z,9.13
2022-09-30T03:50:35.588Z,8.30
2022-09-30T03:53:21.127Z,8.90
2022-09-30T03:56:07.119Z,8.63
2022-09-30T03:58:52.319Z,10.20
2022-09-30T04:01:37.793Z,9.00
2022-09-30T04:04:23.526Z,9.43
2022-09-30T04:07:10.323Z,11.85
2022-09-30T04:09:56.383Z,10.35
2022-09-30T04:12:41.531Z,10.48
2022-09-30T04:15:27.356Z,10.13
2022-09-30T04:18:12.739Z,10.15
2022-09-30T04:20:59.271Z,10.63
2022-09-30T04:23:44.703Z,10.73
2022-09-30T04:26:30.126Z,10.25
2022-09-30T04:29:15.844Z,9.75
2022-09-30T04:32:01.446Z,9.70
2022-09-30T04:34:47.002Z,9.65
2022-09-30T04:37:32.827Z,10.77
2022-09-30T04:40:18.365Z,12.35
2022-09-30T04:43:04.127Z,11.55
2022-09-30T04:45:50.314Z,10.68
2022-09-30T04:48:35.931Z,10.23
2022-09-30T04:51:22.107Z,11.05
2022-09-30T04:54:07.438Z,12.18
2022-09-30T04:56:53.045Z,11.80
2022-09-30T04:59:38.601Z,11.65
2022-09-30T05:02:24.278Z,11.82
2022-09-30T05:05:10.150Z,12.30
2022-09-30T05:08:05.854Z,11.80
2022-09-30T05:10:59.293Z,11.57
2022-09-30T05:13:45.394Z,12.05
2022-09-30T05:16:30.667Z,11.63
2022-09-30T05:19:16.153Z,11.82
2022-09-30T05:22:02.442Z,14.73
2022-09-30T05:24:47.760Z,14.88
2022-09-30T05:27:32.993Z,17.85
2022-09-30T05:30:18.609Z,19.10
2022-09-30T05:33:04.866Z,18.27
2022-09-30T05:35:50.393Z,19.27
2022-09-30T05:38:36.234Z,18.45
2022-09-30T05:41:22.143Z,17.98
2022-09-30T05:44:09.242Z,17.33
2022-09-30T05:46:55.104Z,17.90
2022-09-30T05:49:41.785Z,19.40
2022-09-30T05:52:28.259Z,17.67
2022-09-30T05:55:14.099Z,17.23
2022-09-30T05:57:59.867Z,19.33
2022-09-30T06:00:47.018Z,17.35
2022-09-30T06:03:32.453Z,16.75
2022-09-30T06:06:19.707Z,20.83
2022-09-30T06:09:04.939Z,16.23
2022-09-30T06:11:50.402Z,19.17
2022-09-30T06:14:35.788Z,17.75
2022-09-30T06:17:22.533Z,17.23
2022-09-30T06:20:10.650Z,16.88
2022-09-30T06:22:58.386Z,17.63
2022-09-30T06:25:44.670Z,16.80
2022-09-30T06:28:30.128Z,18.92
2022-09-30T06:31:15.659Z,15.88
2022-09-30T06:34:01.757Z,17.02
2022-09-30T06:36:47.486Z,14.55
2022-09-30T06:39:32.708Z,14.90
2022-09-30T06:42:18.789Z,14.07
2022-09-30T06:45:04.371Z,12.10
2022-09-30T06:47:59.680Z,13.57
2022-09-30T06:50:57.730Z,13.05
2022-09-30T06:53:53.322Z,12.52
2022-09-30T06:56:38.703Z,12.38
2022-09-30T06:59:24.892Z,11.77
2022-09-30T07:02:11.746Z,13.20
2022-09-30T07:04:57.514Z,11.80
2022-09-30T07:07:44.363Z,11.75
2022-09-30T07:10:29.511Z,13.35
2022-09-30T07:13:15.107Z,12.07
2022-09-30T07:16:00.705Z,12.55
2022-09-30T07:18:46.801Z,12.23
2022-09-30T07:21:32.332Z,12.52
2022-09-30T07:24:18.416Z,14.02
2022-09-30T07:27:03.699Z,11.13
2022-09-30T07:30:09.450Z,10.25
2022-09-30T07:32:54.563Z,10.93
2022-09-30T07:35:40.130Z,10.73
2022-09-30T07:38:28.246Z,10.05
2022-09-30T07:41:16.288Z,10.68
2022-09-30T07:44:03.008Z,9.98
2022-09-30T07:46:48.666Z,11.15
2022-09-30T07:49:34.471Z,10.75
2022-09-30T07:52:19.644Z,11.07
2022-09-30T07:55:05.298Z,10.65
2022-09-30T07:57:50.551Z,10.75
2022-09-30T08:00:42.730Z,10.10
2022-09-30T08:03:28.403Z,10.20
2022-09-30T08:06:17.425Z,10.60
2022-09-30T08:09:03.803Z,10.02
2022-09-30T08:11:49.907Z,9.30
2022-09-30T08:14:35.262Z,10.15
2022-09-30T08:17:20.839Z,9.13
2022-09-30T08:20:12.338Z,8.50
2022-09-30T08:22:58.616Z,9.13
2022-09-30T08:25:43.914Z,8.88
2022-09-30T08:28:31.770Z,8.88
2022-09-30T08:31:20.259Z,8.30
2022-09-30T08:34:05.626Z,7.25
2022-09-30T08:36:55.487Z,7.35
2022-09-30T08:39:43.913Z,7.43
2022-09-30T08:43:08.088Z,6.97
2022-09-30T08:46:11.300Z,6.35
2022-09-30T08:51:53.379Z,5.97
2022-09-30T08:54:43.671Z,5.82
2022-09-30T08:57:37.288Z,6.65
2022-09-30T09:00:23.497Z,6.80
2022-09-30T09:03:13.070Z,6.88
2022-09-30T09:06:16.991Z,6.85
2022-09-30T09:09:16.004Z,7.70
2022-09-30T09:12:14.433Z,7.22
2022-09-30T09:15:14.553Z,7.95
2022-09-30T09:18:30.531Z,7.43
2022-09-30T09:21:40.651Z,9.27
2022-09-30T09:24:30.267Z,7.93
2022-09-30T09:30:23.300Z,6.90
2022-09-30T09:33:29.821Z,7.72
2022-09-30T09:36:53.446Z,6.97
2022-09-30T09:42:57.955Z,6.60
2022-09-30T09:46:25.196Z,6.95
2022-09-30T09:49:25.127Z,6.50
2022-09-30T09:52:26.344Z,5.90
2022-09-30T09:55:13.778Z,6.60
2022-09-30T09:58:14.311Z,6.70
2022-09-30T10:01:32.130Z,6.25
2022-09-30T10:04:24.626Z,6.30
2022-09-30T10:07:14.950Z,6.68
2022-09-30T10:10:23.798Z,5.90
2022-09-30T10:13:29.391Z,6.38
2022-09-30T10:16:27.247Z,6.32
2022-09-30T10:19:26.526Z,5.78
2022-09-30T10:22:12.445Z,6.88
2022-09-30T10:25:23.682Z,5.07
2022-09-30T10:28:28.250Z,5.10
2022-09-30T10:31:20.675Z,4.78
2022-09-30T10:34:27.927Z,4.77
2022-09-30T10:37:21.312Z,4.70
2022-09-30T10:40:16.060Z,4.88
2022-09-30T10:43:01.692Z,5.10
2022-09-30T10:46:01.531Z,5.00
2022-09-30T10:48:55.022Z,5.45
2022-09-30T10:51:45.635Z,4.45
2022-09-30T10:54:40.044Z,5.40
2022-09-30T10:57:32.356Z,4.95
2022-09-30T11:00:21.966Z,4.82
2022-09-30T11:03:14.698Z,4.40
2022-09-30T11:06:01.480Z,4.50
2022-09-30T11:08:55.944Z,4.88
2022-09-30T11:12:14.388Z,4.15
2022-09-30T11:15:21.708Z,3.53
2022-09-30T11:18:25.870Z,3.78
2022-09-30T11:21:22.642Z,3.95
2022-09-30T11:24:18.043Z,3.70
2022-09-30T11:27:50.760Z,3.60
2022-09-30T11:31:14.105Z,3.00
2022-09-30T11:34:37.986Z,3.20
2022-09-30T11:40:39.960Z,2.65
2022-09-30T11:43:28.236Z,2.75
2022-09-30T11:46:39.424Z,2.45
2022-09-30T11:49:40.905Z,2.75
2022-09-30T11:53:00.438Z,2.45
2022-09-30T11:56:18.642Z,2.53
2022-09-30T11:59:14.184Z,2.03
2022-09-30T12:02:04.349Z,2.08
2022-09-30T12:04:54.681Z,2.28
2022-09-30T12:08:03.429Z,2.30
2022-09-30T12:10:54.302Z,2.70
2022-09-30T12:13:47.309Z,2.50
2022-09-30T12:16:34.667Z,2.35
2022-09-30T12:19:45.602Z,2.13
2022-09-30T12:22:36.557Z,2.55
2022-09-30T12:25:28.308Z,1.88
2022-09-30T12:28:51.214Z,2.33
2022-09-30T12:32:06.326Z,1.75
2022-09-30T12:35:21.742Z,1.90
2022-09-30T12:38:35.418Z,1.95
2022-09-30T12:41:29.821Z,1.42
2022-09-30T12:44:52.749Z,1.60
2022-09-30T12:47:52.558Z,1.23
2022-09-30T12:50:46.099Z,1.77
2022-09-30T12:53:34.831Z,1.60
2022-09-30T12:56:20.283Z,1.73
2022-09-30T12:59:07.601Z,1.45
2022-09-30T13:01:52.977Z,1.48
2022-09-30T13:04:43.028Z,2.00
2022-09-30T13:07:33.680Z,1.45
2022-09-30T13:10:27.701Z,1.38
2022-09-30T13:13:32.314Z,1.50
2022-09-30T13:17:04.293Z,1.20
2022-09-30T13:19:54.803Z,1.60
2022-09-30T13:22:43.375Z,1.50
2022-09-30T13:25:54.895Z,1.50
2022-09-30T13:28:40.303Z,1.40
2022-09-30T13:31:28.494Z,1.40
2022-09-30T13:34:23.442Z,1.70
2022-09-30T13:37:34.129Z,1.60
2022-09-30T13:40:32.893Z,2.08
2022-09-30T13:43:33.386Z,1.90
2022-09-30T13:46:35.624Z,2.38
2022-09-30T13:49:43.765Z,1.63
2022-09-30T13:52:33.388Z,2.28
2022-09-30T13:55:24.647Z,2.28
2022-09-30T13:58:44.087Z,2.30
2022-09-30T14:01:53.393Z,2.72
2022-09-30T14:05:06.432Z,2.40
2022-09-30T14:08:10.650Z,2.72
2022-09-30T14:11:14.739Z,2.38
2022-09-30T14:14:25.114Z,2.50
2022-09-30T14:17:22.688Z,2.28
2022-09-30T14:20:13.806Z,2.50
2022-09-30T14:22:59.180Z,2.53
2022-09-30T14:26:04.673Z,3.15
2022-09-30T14:28:58.927Z,2.40
2022-09-30T14:31:48.547Z,2.00
2022-09-30T14:34:33.953Z,2.28
2022-09-30T14:37:25.163Z,2.28
2022-09-30T14:40:20.118Z,1.80
2022-09-30T14:43:18.344Z,2.40
2022-09-30T14:46:08.697Z,2.30
2022-09-30T14:48:58.960Z,1.67
2022-09-30T14:51:47.112Z,2.38
2022-09-30T14:54:33.580Z,2.47
2022-09-30T14:57:19.618Z,2.15
2022-09-30T15:00:44.446Z,1.88
2022-09-30T15:03:32.637Z,2.92
2022-09-30T15:06:30.931Z,2.40
2022-09-30T15:09:36.218Z,3.53
2022-09-30T15:12:23.403Z,2.15
2022-09-30T15:15:37.870Z,2.42
2022-09-30T15:18:24.259Z,3.00
2022-09-30T15:21:15.767Z,2.47
2022-09-30T15:24:02.772Z,2.88
2022-09-30T15:26:49.458Z,2.78
2022-09-30T15:29:35.044Z,2.90
2022-09-30T15:32:24.441Z,2.42
2022-09-30T15:35:17.034Z,3.40
2022-09-30T15:38:15.132Z,2.77
2022-09-30T15:41:07.508Z,2.80
2022-09-30T15:43:54.086Z,3.28
2022-09-30T15:46:40.606Z,2.75
2022-09-30T15:49:38.437Z,3.20
2022-09-30T15:52:40.157Z,2.53
2022-09-30T15:55:43.183Z,3.45
2022-09-30T15:58:38.157Z,2.30
2022-09-30T16:01:33.068Z,3.05
2022-09-30T16:04:18.556Z,2.45
2022-09-30T16:07:10.290Z,2.35
2022-09-30T16:09:57.740Z,2.47
2022-09-30T16:12:49.416Z,3.03
2022-09-30T16:15:40.548Z,3.00
2022-09-30T16:18:32.634Z,2.40
2022-09-30T16:21:44.802Z,2.40
2022-09-30T16:24:32.189Z,2.35
2022-09-30T16:27:29.183Z,1.83
2022-09-30T16:30:17.257Z,2.25
2022-09-30T16:33:06.762Z,2.00
2022-09-30T16:35:52.335Z,2.53
2022-09-30T16:38:38.526Z,2.05
2022-09-30T16:41:25.836Z,2.65
2022-09-30T16:44:11.767Z,2.38
2022-09-30T16:46:57.395Z,2.53
2022-09-30T16:49:43.470Z,1.92
2022-09-30T16:52:28.800Z,2.60
2022-09-30T16:58:05.950Z,2.45
2022-09-30T17:00:51.798Z,2.15
2022-09-30T17:03:38.287Z,2.10
2022-09-30T17:06:29.813Z,2.90
2022-09-30T17:09:15.806Z,2.15
2022-09-30T17:12:01.550Z,2.17
2022-09-30T17:14:47.270Z,2.10
2022-09-30T17:17:32.688Z,1.70
2022-09-30T17:20:18.644Z,1.98
2022-09-30T17:23:07.367Z,2.53
2022-09-30T17:25:54.714Z,3.38
2022-09-30T17:28:40.102Z,3.78
2022-09-30T17:31:25.679Z,2.75
2022-09-30T17:34:11.210Z,2.42
2022-09-30T17:36:56.901Z,2.67
2022-09-30T17:39:42.471Z,2.80
2022-09-30T17:42:46.475Z,2.45
2022-09-30T17:45:32.056Z,2.85
2022-09-30T17:48:18.312Z,2.55
2022-09-30T17:51:04.085Z,2.92
2022-09-30T17:53:49.747Z,2.00
2022-09-30T17:56:35.448Z,1.90
2022-09-30T17:59:21.515Z,1.70
2022-09-30T18:02:07.053Z,1.60
2022-09-30T18:04:54.361Z,1.63
2022-09-30T18:07:39.652Z,1.60
2022-09-30T18:10:25.531Z,1.80
2022-09-30T18:13:11.524Z,1.98
2022-09-30T18:16:01.844Z,2.30
2022-09-30T18:18:47.223Z,2.72
2022-09-30T18:21:34.185Z,2.88
2022-09-30T18:24:39.902Z,2.08
2022-09-30T18:27:26.108Z,1.45
2022-09-30T18:30:11.851Z,2.08
2022-09-30T18:32:58.984Z,2.40
2022-09-30T18:35:47.394Z,1.92
2022-09-30T18:38:34.310Z,2.03
2022-09-30T18:41:19.690Z,1.50
2022-09-30T18:44:05.230Z,1.67
2022-09-30T18:46:51.472Z,2.80
2022-09-30T18:49:36.988Z,2.88
2022-09-30T18:52:22.500Z,1.17
2022-09-30T18:55:09.717Z,1.30
2022-09-30T18:57:56.038Z,1.35
2022-09-30T19:00:41.954Z,1.00
2022-09-30T19:03:31.596Z,1.88
2022-09-30T19:06:17.303Z,1.30
2022-09-30T19:09:02.562Z,1.52
2022-09-30T19:11:49.218Z,1.15
2022-09-30T19:14:35.459Z,1.95
2022-09-30T19:17:20.701Z,1.38
2022-09-30T19:20:06.677Z,1.40
2022-09-30T19:22:51.994Z,1.23
2022-09-30T19:25:38.969Z,1.30
2022-09-30T19:28:24.384Z,1.00
2022-09-30T19:31:17.187Z,2.08
2022-09-30T19:34:03.673Z,1.17
2022-09-30T19:36:51.867Z,1.02
2022-09-30T19:39:45.041Z,1.02
2022-09-30T19:42:32.377Z,1.30
2022-09-30T19:45:24.347Z,1.08
2022-09-30T19:48:10.742Z,1.40
2022-09-30T19:51:03.097Z,0.80
2022-09-30T19:54:00.169Z,0.80
2022-09-30T19:56:50.487Z,1.17
2022-09-30T19:59:36.107Z,0.82
2022-09-30T20:02:22.218Z,0.95
2022-09-30T20:05:08.265Z,1.05
2022-09-30T20:07:53.585Z,0.60
2022-09-30T20:10:39.292Z,0.85
2022-09-30T20:13:24.947Z,0.68
2022-09-30T20:16:13.862Z,0.60
2022-09-30T20:18:59.288Z,0.60
2022-09-30T20:21:45.938Z,0.63
2022-09-30T20:24:31.968Z,0.60
2022-09-30T20:27:17.182Z,1.00
2022-09-30T20:30:03.170Z,0.90
2022-09-30T20:32:48.610Z,0.63
2022-09-30T20:35:37.181Z,0.52
2022-09-30T20:38:24.951Z,0.47
2022-09-30T20:41:10.494Z,0.47
2022-09-30T20:43:56.398Z,0.57
2022-09-30T20:46:43.176Z,0.45
2022-09-30T20:49:29.321Z,0.43
2022-09-30T20:52:15.198Z,0.73
2022-09-30T20:55:00.655Z,0.60
2022-09-30T20:57:46.431Z,0.38
2022-09-30T21:00:33.836Z,0.20
2022-09-30T21:03:19.427Z,0.32
2022-09-30T21:06:07.400Z,0.32
2022-09-30T21:08:54.256Z,0.32
2022-09-30T21:11:42.078Z,0.10
2022-09-30T21:14:27.277Z,0.30
2022-09-30T21:17:12.737Z,0.28
2022-09-30T21:19:58.013Z,0.20
2022-09-30T21:22:43.688Z,0.25
2022-09-30T21:25:32.480Z,0.38
2022-09-30T21:28:17.947Z,0.57
2022-09-30T21:31:29.127Z,0.55
2022-09-30T21:34:15.041Z,0.57
2022-09-30T21:37:01.844Z,0.50
2022-09-30T21:39:48.204Z,0.60
2022-09-30T21:42:33.684Z,0.80
2022-09-30T21:45:22.432Z,0.30
2022-09-30T21:48:09.490Z,0.57
2022-09-30T21:50:55.410Z,1.23
2022-09-30T21:53:41.662Z,0.85
2022-09-30T21:56:30.541Z,0.60
2022-09-30T21:59:16.203Z,0.43
2022-09-30T22:02:01.884Z,1.02
2022-09-30T22:04:47.237Z,0.50
2022-09-30T22:07:33.193Z,0.52
2022-09-30T22:10:18.484Z,0.70
2022-09-30T22:13:03.955Z,0.80
2022-09-30T22:15:49.625Z,0.90
2022-09-30T22:18:35.701Z,0.77
2022-09-30T22:21:21.908Z,0.70
2022-09-30T22:24:09.256Z,0.80
2022-09-30T22:26:54.966Z,1.00
2022-09-30T22:29:40.471Z,0.90
2022-09-30T22:32:27.706Z,1.30
2022-09-30T22:35:31.545Z,1.23
2022-09-30T22:38:17.369Z,1.33
2022-09-30T22:41:02.927Z,1.35
2022-09-30T22:43:48.323Z,1.30
2022-09-30T22:46:38.102Z,1.80
2022-09-30T22:49:24.624Z,1.35
2022-09-30T22:52:09.856Z,1.45
2022-09-30T22:54:55.386Z,1.70
2022-09-30T22:57:41.493Z,2.28
2022-09-30T23:00:26.777Z,1.60
2022-09-30T23:03:12.270Z,1.70
2022-09-30T23:06:02.421Z,1.90
2022-09-30T23:08:47.873Z,2.13
2022-09-30T23:11:35.688Z,1.90
2022-09-30T23:14:22.320Z,2.20
2022-09-30T23:17:07.554Z,2.22
2022-09-30T23:19:53.110Z,2.20
2022-09-30T23:22:38.482Z,2.92
2022-09-30T23:25:24.120Z,2.22
2022-09-30T23:28:09.674Z,1.95
2022-09-30T23:30:55.943Z,2.22
2022-09-30T23:33:49.889Z,3.15
2022-09-30T23:36:37.377Z,3.20
2022-09-30T23:39:22.638Z,3.08
2022-09-30T23:42:08.347Z,3.65
2022-09-30T23:44:53.644Z,3.10
2022-09-30T23:47:39.149Z,3.38
2022-09-30T23:50:25.335Z,3.00
2022-09-30T23:53:10.820Z,2.83
2022-09-30T23:56:16.980Z,3.28
2022-09-30T23:59:02.431Z,3.08
